Stuart, FL

9:32 AM EDT on October 23, 2014 (GMT -0400)
Palm Beach International | Change Station
CLOSE
Current Station
Airport
Location: West Palm Beach,
Elevation: 20 ft
Nearby Weather Stations

Elev 20 ft 26.68 °N, 80.10 °W | Updated 39 minutes ago

Mostly Cloudy
Mostly Cloudy
76 °F
Feels Like 76 °F
N
5
Wind Variable Wind from NNE

Today
High -- | Low -- °F
--% Chance of Precip.
Yesterday
High -- | Low -- °F
Precip. -- in
7:25 AM 6:44 PM
Waning Crescent, 0% visible
Pressure 29.93 in
Visibility 10.0 miles
Clouds Mostly Cloudy 2500 ft
Mostly Cloudy 4500 ft
Overcast 7000 ft
Dew Point 69 °F
Humidity 79%
Rainfall 0.59 in
Snow Depth Not available.
UV 0 out of 12
Pollen 3.80 out of 12
Air Quality Not available.
Flu Activity Local Activity
METAR KPBI 231253Z 02004KT 10SM -RA BKN025 BKN045 OVC070 24/21 A2993 RMK AO2 RAE26B50 SLP134 P0000 T02440206 $

More Conditions Fewer Conditions

Pressure 29.93 in
Visibility 10.0 miles
Clouds Mostly Cloudy 2500 ft
Mostly Cloudy 4500 ft
Overcast 7000 ft
Dew Point 69 °F
Humidity 79%
Rainfall 0.59 in
Snow Depth Not available.
UV 0 out of 12
Pollen 3.80 out of 12
Air Quality Not available.
Flu Activity Local Activity
METAR KPBI 231253Z 02004KT 10SM -RA BKN025 BKN045 OVC070 24/21 A2993 RMK AO2 RAE26B50 SLP134 P0000 T02440206 $

More Conditions Fewer Conditions

Nowcast | as of 8:49 am EDT on October 23, 2014

Drier air has pushed into east central Florida behind a cold front that will continue to drift southward today. Winds out of the northeast will keep high temperatures in the upper 70s to around 80 at the coast...and lower 80s well inland. Plenty of sunshine is expected...except for a few more clouds along the Treasure Coast. Small craft should exercise caution from Brevard County to Jupiter Inlet for seas building to 5 to 6 feet from 20nm-60nm offshore. Additional details...including graphics are available online at: http://www.Srh.NOAA.Gov/mlb/blog.Php

×

10-Day Weather Forecast

Almanac

Astronomy

Oct. 23, 2014 Rise Set
Actual Time 7:25 AM EDT 6:44 PM EDT
Civil Twilight 7:01 AM EDT 7:08 PM EDT
Nautical Twilight 6:34 AM EDT 7:35 PM EDT
Astronomical Twilight 6:07 AM EDT 8:02 PM EDT
Moon 7:05 AM EDT 6:45 PM EDT
Length of Visible Light 12h 06m
Length of Day
11h 19m
Tomorrow will be 1m 29s shorter.
Waning Crescent, 0% of the Moon is Illuminated
Today
Waning Crescent
Oct 23
New
Oct 30
First Quarter
Nov 6
Full
Nov 14
Last Quarter

Today's Extremes

State Highs State Lows

Community

WunderPhotos

Upload Photos

1,764,238 photos uploaded!

Nearby

Snow Depth

Station Depth Elevation
No new snow has been reported.

Earthquake Activity

City Distance Mag. Time & Date
No recent earthquake activity has been reported nearby.
Minimum magnitude displayed is 2.5.

Coastal Water Temperatures

Place Temperature
Lake Worth, FL 82.0 °F
Trident Pier, FL 80.1 °F
Virginia Key, FL 81.0 °F

Nearby Weather Stations